Weather History for Valley City, ND

Change the Weather History Date:

Tuesday, October 1, 2013

  Actual Average (KJMS) Record (KJMS)
Temperature  
Mean Temperature 57 °F 51 °F  
Max Temperature 68 °F 63 °F 94 °F (1992)
Min Temperature 46 °F 38 °F 17 °F (1936)
Degree Days  
Heating Degree Days 8 14  
Month to date heating degree days 14  
Since 1 July heating degree days 332  
Cooling Degree Days 0 0  
Month to date cooling degree days 0  
Year to date cooling degree days 445  
Growing Degree Days 7 (Base 50)    
Moisture  
Dew Point 39 °F    
Average Humidity 56    
Maximum Humidity 100    
Minimum Humidity 26    
Precipitation  
Precipitation 0.00 in 0.06 in 0.96 in (2009)
Month to date precipitation 0.06  
Year to date precipitation 16.25  
Sea Level Pressure  
Sea Level Pressure 29.79 in    
Wind  
Wind Speed 15 mph (West)    
Max Wind Speed 29 mph    
Max Gust Speed 36 mph    
Visibility 10 miles    
Events Rain    
T = Trace of Precipitation, MM = Missing Value Source: NWS Daily Summary

Daily Weather History Graph

Daily Weather History Graph

Search for Another Location

Airport:

Trip Planner

Search our weather history database for the weather conditions in past years. The results will help you decide how hot, cold, wet, or windy it might be!

Date:

Astronomy

Oct. 01, 2013 Rise Set
Actual Time 7:31 AM CDT 7:11 PM CDT
Civil Twilight 7:00 AM CDT 7:41 PM CDT
Nautical Twilight 6:25 AM CDT 8:16 PM CDT
Astronomical Twilight 5:49 AM CDT 8:52 PM CDT
Moon 3:55 AM CDT (10/1) 5:24 PM CDT (10/1)
Length of Visible Light 12h 40m
Length of Day
11h 39m
Waning Crescent, 12% of the Moon is Illuminated
Oct 1
Waning Crescent
Oct 4
New
Oct 11
First Quarter
Oct 18
Full
Oct 26
Last Quarter

Hourly Weather History & Observations

Time (CDT) Temp. Windchill Dew Point Humidity Pressure Visibility Wind Dir Wind Speed Gust Speed Precip Events Conditions
12:15 AM 57.2 °F - 50.0 °F 77% 29.60 in 10.0 mi WNW 12.7 mph 19.6 mph N/A   Mostly Cloudy
12:35 AM 55.4 °F - 51.8 °F 88% 29.59 in 10.0 mi WNW 8.1 mph - N/A   Mostly Cloudy
12:55 AM 55.4 °F - 51.8 °F 88% 29.60 in 10.0 mi NW 9.2 mph - N/A   Mostly Cloudy
1:15 AM 55.4 °F - 53.6 °F 94% 29.59 in 10.0 mi WNW 6.9 mph - N/A   Mostly Cloudy
1:35 AM 55.4 °F - 53.6 °F 94% 29.59 in 10.0 mi West 11.5 mph - N/A Rain Light Rain
1:55 AM 53.6 °F - 53.6 °F 100% 29.61 in 10.0 mi West 12.7 mph - N/A   Scattered Clouds
2:15 AM 53.6 °F - 53.6 °F 100% 29.62 in 10.0 mi West 15.0 mph 21.9 mph N/A   Scattered Clouds
2:35 AM 55.4 °F - 50.0 °F 82% 29.62 in 10.0 mi West 16.1 mph 25.3 mph N/A   Scattered Clouds
2:55 AM 53.6 °F - 50.0 °F 88% 29.63 in 10.0 mi West 18.4 mph 24.2 mph N/A   Scattered Clouds
3:15 AM 53.6 °F - 48.2 °F 82% 29.63 in 10.0 mi West 12.7 mph - N/A   Clear
3:35 AM 53.6 °F - 48.2 °F 82% 29.63 in 10.0 mi West 15.0 mph 20.7 mph N/A   Clear
3:55 AM 53.6 °F - 48.2 °F 82% 29.63 in 10.0 mi West 15.0 mph 19.6 mph N/A   Partly Cloudy
4:15 AM 51.8 °F - 46.4 °F 82% 29.66 in 10.0 mi West 17.3 mph - N/A   Clear
4:35 AM 51.8 °F - 44.6 °F 76% 29.67 in 10.0 mi West 13.8 mph 18.4 mph N/A   Clear
4:55 AM 51.8 °F - 44.6 °F 76% 29.68 in 10.0 mi West 15.0 mph - N/A   Clear
5:15 AM 50.0 °F - 44.6 °F 82% 29.69 in 10.0 mi West 13.8 mph - N/A   Clear
5:35 AM 50.0 °F - 42.8 °F 76% 29.70 in 10.0 mi West 16.1 mph 20.7 mph N/A   Clear
5:55 AM 50.0 °F - 42.8 °F 76% 29.70 in 10.0 mi West 16.1 mph - N/A   Clear
6:15 AM 50.0 °F - 41.0 °F 71% 29.71 in 10.0 mi West 12.7 mph - N/A   Clear
6:35 AM 50.0 °F - 42.8 °F 76% 29.72 in 10.0 mi WSW 15.0 mph - N/A   Clear
6:55 AM 48.2 °F - 41.0 °F 76% 29.73 in 10.0 mi WSW 15.0 mph 19.6 mph N/A   Clear
7:15 AM 48.2 °F - 41.0 °F 76% 29.74 in 10.0 mi WSW 12.7 mph - N/A   Clear
7:35 AM 48.2 °F - 41.0 °F 76% 29.74 in 10.0 mi WSW 13.8 mph - N/A   Clear
7:55 AM 48.2 °F - 39.2 °F 71% 29.75 in 10.0 mi WSW 12.7 mph 18.4 mph N/A   Clear
8:15 AM 48.2 °F - 39.2 °F 71% 29.76 in 10.0 mi WSW 15.0 mph 20.7 mph N/A   Clear
8:35 AM 50.0 °F - 39.2 °F 66% 29.77 in 10.0 mi WSW 13.8 mph - N/A   Clear
8:55 AM 53.6 °F - 39.2 °F 58% 29.77 in 10.0 mi West 17.3 mph 21.9 mph N/A   Clear
9:15 AM 53.6 °F - 37.4 °F 54% 29.78 in 10.0 mi West 16.1 mph 24.2 mph N/A   Clear
9:35 AM 55.4 °F - 37.4 °F 51% 29.79 in 10.0 mi West 16.1 mph 21.9 mph N/A   Clear
9:55 AM 57.2 °F - 35.6 °F 44% 29.80 in 10.0 mi West 20.7 mph 29.9 mph N/A   Clear
10:15 AM 57.2 °F - 35.6 °F 44% 29.80 in 10.0 mi West 20.7 mph 28.8 mph N/A   Clear
10:35 AM 59.0 °F - 35.6 °F 42% 29.80 in 10.0 mi West 23.0 mph 29.9 mph N/A   Clear
10:55 AM 59.0 °F - 35.6 °F 42% 29.81 in 10.0 mi West 25.3 mph 35.7 mph N/A   Clear
11:15 AM 60.8 °F - 35.6 °F 39% 29.81 in 10.0 mi West 24.2 mph 31.1 mph N/A   Clear
11:35 AM 62.6 °F - 35.6 °F 37% 29.82 in 10.0 mi West 23.0 mph 32.2 mph N/A   Clear
11:55 AM 62.6 °F - 35.6 °F 37% 29.82 in 10.0 mi West 21.9 mph 28.8 mph N/A   Clear
12:15 PM 62.6 °F - 35.6 °F 37% 29.82 in 10.0 mi West 24.2 mph 27.6 mph N/A   Clear
12:35 PM 64.4 °F - 33.8 °F 32% 29.83 in 10.0 mi West 21.9 mph 33.4 mph N/A   Clear
12:55 PM 64.4 °F - 33.8 °F 32% 29.83 in 10.0 mi West 21.9 mph 31.1 mph N/A   Clear
1:15 PM 64.4 °F - 32.0 °F 30% 29.83 in 10.0 mi West 20.7 mph 32.2 mph N/A   Clear
1:35 PM 66.2 °F - 33.8 °F 30% 29.84 in 10.0 mi West 28.8 mph 34.5 mph N/A   Clear
1:55 PM 66.2 °F - 32.0 °F 28% 29.84 in 10.0 mi West 26.5 mph 34.5 mph N/A   Clear
2:15 PM 66.2 °F - 32.0 °F 28% 29.84 in 10.0 mi WNW 20.7 mph 32.2 mph N/A   Clear
2:35 PM 66.2 °F - 32.0 °F 28% 29.84 in 10.0 mi West 23.0 mph 34.5 mph N/A   Clear
2:55 PM 66.2 °F - 32.0 °F 28% 29.84 in 10.0 mi West 28.8 mph 34.5 mph N/A   Clear
3:15 PM 66.2 °F - 32.0 °F 28% 29.84 in 10.0 mi West 20.7 mph 35.7 mph N/A   Clear
3:35 PM 68.0 °F - 32.0 °F 26% 29.85 in 10.0 mi West 24.2 mph 33.4 mph N/A   Clear
3:55 PM 68.0 °F - 32.0 °F 26% 29.85 in 10.0 mi West 23.0 mph 32.2 mph N/A   Clear
4:15 PM 68.0 °F - 32.0 °F 26% 29.85 in 10.0 mi West 23.0 mph 32.2 mph N/A   Clear
4:35 PM 68.0 °F - 33.8 °F 28% 29.85 in 10.0 mi WNW 19.6 mph 27.6 mph N/A   Clear
4:55 PM 66.2 °F - 33.8 °F 30% 29.85 in 10.0 mi West 16.1 mph 26.5 mph N/A   Clear
5:15 PM 66.2 °F - 33.8 °F 30% 29.85 in 10.0 mi West 19.6 mph 24.2 mph N/A   Clear
5:35 PM 66.2 °F - 32.0 °F 28% 29.86 in 10.0 mi West 17.3 mph - N/A   Clear
5:55 PM 66.2 °F - 33.8 °F 30% 29.86 in 10.0 mi West 16.1 mph 20.7 mph N/A   Clear
6:15 PM 64.4 °F - 33.8 °F 32% 29.87 in 10.0 mi West 13.8 mph 21.9 mph N/A   Clear
6:35 PM 64.4 °F - 35.6 °F 34% 29.87 in 10.0 mi West 10.4 mph 18.4 mph N/A   Clear
6:55 PM 60.8 °F - 35.6 °F 39% 29.87 in 10.0 mi West 9.2 mph - N/A   Clear
7:15 PM 57.2 °F - 35.6 °F 44% 29.88 in 4.0 mi West 8.1 mph - N/A   Haze
7:35 PM 57.2 °F - 35.6 °F 44% 29.88 in 10.0 mi WSW 6.9 mph - N/A   Clear
7:55 PM 55.4 °F - 35.6 °F 47% 29.89 in 5.0 mi SW 6.9 mph - N/A   Haze
8:15 PM 55.4 °F - 35.6 °F 47% 29.90 in 10.0 mi WSW 6.9 mph - N/A   Clear
8:35 PM 55.4 °F - 35.6 °F 47% 29.90 in 8.0 mi WSW 6.9 mph - N/A   Clear
8:55 PM 53.6 °F - 35.6 °F 51% 29.90 in 10.0 mi WSW 6.9 mph - N/A   Clear
9:15 PM 53.6 °F - 35.6 °F 51% 29.91 in 8.0 mi WSW 8.1 mph - N/A   Clear
9:35 PM 51.8 °F - 35.6 °F 54% 29.92 in 10.0 mi WSW 6.9 mph - N/A   Clear
9:55 PM 50.0 °F - 35.6 °F 58% 29.92 in 8.0 mi WSW 8.1 mph - N/A   Clear
10:15 PM 50.0 °F - 35.6 °F 58% 29.93 in 10.0 mi SW 8.1 mph - N/A   Clear
10:35 PM 48.2 °F - 35.6 °F 62% 29.93 in 10.0 mi WSW 8.1 mph - N/A   Clear
10:55 PM 46.4 °F 42.4 °F 37.4 °F 71% 29.94 in 10.0 mi WSW 8.1 mph - N/A   Clear
11:15 PM 46.4 °F 41.9 °F 37.4 °F 71% 29.94 in 10.0 mi WSW 9.2 mph - N/A   Clear
11:35 PM 46.4 °F 42.4 °F 37.4 °F 71% 29.94 in 10.0 mi WSW 8.1 mph - N/A   Clear
11:55 PM 46.4 °F 42.4 °F 37.4 °F 71% 29.95 in 10.0 mi WSW 8.1 mph - N/A   Clear